createdAt,value
2023-03-30T00:02:16.086Z,38.20
2023-03-30T00:07:17.511Z,38.20
2023-03-30T00:12:18.950Z,38.10
2023-03-30T00:17:20.362Z,38.20
2023-03-30T00:22:21.781Z,38.10
2023-03-30T00:27:23.190Z,38.10
2023-03-30T00:32:24.619Z,38.00
2023-03-30T00:37:26.033Z,38.10
2023-03-30T00:42:27.440Z,38.60
2023-03-30T00:47:28.866Z,38.00
2023-03-30T00:52:30.274Z,38.10
2023-03-30T00:57:31.697Z,38.00
2023-03-30T01:02:33.172Z,38.00
2023-03-30T01:07:34.599Z,38.00
2023-03-30T01:12:36.001Z,38.00
2023-03-30T01:17:37.463Z,38.00
2023-03-30T01:22:38.880Z,38.00
2023-03-30T01:27:40.282Z,38.00
2023-03-30T01:32:41.853Z,38.00
2023-03-30T01:37:43.324Z,38.00
2023-03-30T01:42:44.853Z,38.00
2023-03-30T01:47:46.322Z,37.90
2023-03-30T01:52:49.232Z,38.00
2023-03-30T01:57:51.756Z,38.00
2023-03-30T02:02:53.244Z,37.90
2023-03-30T02:07:54.664Z,37.90
2023-03-30T02:12:56.102Z,37.80
2023-03-30T02:17:57.560Z,38.00
2023-03-30T02:22:58.981Z,37.90
2023-03-30T02:28:00.371Z,37.90
2023-03-30T02:33:01.859Z,37.80
2023-03-30T02:38:03.315Z,37.80
2023-03-30T02:43:04.737Z,37.80
2023-03-30T02:48:06.188Z,37.90
2023-03-30T02:53:07.624Z,37.80
2023-03-30T02:58:09.044Z,37.80
2023-03-30T03:03:10.519Z,37.80
2023-03-30T03:08:11.944Z,37.80
2023-03-30T03:13:13.365Z,37.80
2023-03-30T03:18:14.768Z,37.80
2023-03-30T03:23:16.163Z,37.80
2023-03-30T03:28:17.616Z,38.40
2023-03-30T03:33:19.023Z,37.80
2023-03-30T03:38:20.423Z,37.80
2023-03-30T03:43:21.848Z,37.80
2023-03-30T03:48:23.252Z,37.80
2023-03-30T03:53:24.679Z,37.80
2023-03-30T03:58:26.123Z,37.80
2023-03-30T04:03:27.559Z,37.80
2023-03-30T04:08:29.049Z,37.80
2023-03-30T04:13:30.469Z,37.80
2023-03-30T04:18:31.870Z,37.90
2023-03-30T04:23:33.282Z,37.80
2023-03-30T04:28:34.701Z,37.80
2023-03-30T04:33:36.108Z,37.80
2023-03-30T04:38:37.569Z,37.80
2023-03-30T04:43:38.992Z,37.80
2023-03-30T04:48:40.400Z,37.80
2023-03-30T04:53:41.815Z,37.80
2023-03-30T04:58:43.224Z,37.80
2023-03-30T05:03:44.705Z,37.80
2023-03-30T05:08:46.140Z,37.80
2023-03-30T05:13:47.533Z,37.80
2023-03-30T05:18:51.360Z,37.80
2023-03-30T05:23:53.048Z,37.80
2023-03-30T05:28:54.454Z,37.80
2023-03-30T05:33:55.871Z,37.80
2023-03-30T05:38:57.398Z,37.80
2023-03-30T05:43:58.937Z,37.80
2023-03-30T05:49:00.386Z,37.80
2023-03-30T05:54:01.851Z,37.80
2023-03-30T05:59:03.403Z,37.80
2023-03-30T06:04:04.973Z,37.80
2023-03-30T06:09:06.503Z,37.80
2023-03-30T06:14:07.950Z,37.80
2023-03-30T06:19:09.362Z,37.80
2023-03-30T06:24:10.789Z,37.90
2023-03-30T06:29:12.196Z,37.80
2023-03-30T06:34:13.620Z,37.80
2023-03-30T06:39:15.113Z,37.80
2023-03-30T06:44:16.532Z,37.80
2023-03-30T06:49:17.944Z,37.80
2023-03-30T06:54:19.360Z,37.80
2023-03-30T06:59:20.844Z,37.80
2023-03-30T07:04:22.445Z,37.80
2023-03-30T07:09:23.897Z,37.80
2023-03-30T07:14:25.318Z,37.80
2023-03-30T07:19:26.746Z,37.80
2023-03-30T07:24:28.152Z,37.80
2023-03-30T07:29:29.558Z,37.80
2023-03-30T07:34:30.978Z,37.80
2023-03-30T07:39:33.929Z,37.80
2023-03-30T07:44:35.566Z,37.70
2023-03-30T07:49:36.992Z,37.80
2023-03-30T07:54:38.450Z,38.30
2023-03-30T07:59:39.861Z,37.70
2023-03-30T08:04:41.431Z,37.80
2023-03-30T08:09:43.137Z,37.80
2023-03-30T08:14:44.546Z,37.70
2023-03-30T08:19:45.952Z,37.80
2023-03-30T08:24:47.382Z,37.80
2023-03-30T08:29:48.951Z,37.80
2023-03-30T08:34:50.422Z,37.70
2023-03-30T08:39:51.839Z,37.80
2023-03-30T08:44:53.284Z,37.80
2023-03-30T08:49:54.752Z,37.80
2023-03-30T08:54:56.164Z,37.70
2023-03-30T08:59:57.566Z,37.70
2023-03-30T09:04:58.981Z,37.70
2023-03-30T09:10:00.485Z,37.80
2023-03-30T09:15:01.925Z,37.80
2023-03-30T09:20:03.360Z,37.80
2023-03-30T09:25:04.775Z,37.80
2023-03-30T09:30:06.183Z,37.80
2023-03-30T09:35:07.585Z,37.90
2023-03-30T09:40:09.017Z,37.80
2023-03-30T09:45:10.457Z,37.90
2023-03-30T09:50:11.883Z,37.90
2023-03-30T09:55:13.293Z,37.80
2023-03-30T10:00:14.718Z,37.90
2023-03-30T10:05:16.146Z,37.90
2023-03-30T10:10:17.577Z,37.90
2023-03-30T10:15:19.010Z,37.80
2023-03-30T10:20:20.460Z,37.90
2023-03-30T10:25:21.891Z,37.90
2023-03-30T10:30:23.314Z,37.90
2023-03-30T10:35:24.766Z,37.90
2023-03-30T10:40:26.186Z,37.90
2023-03-30T10:45:27.594Z,37.80
2023-03-30T10:50:29.058Z,38.00
2023-03-30T10:55:30.491Z,37.90
2023-03-30T11:00:31.924Z,37.80
2023-03-30T11:05:33.356Z,38.60
2023-03-30T11:10:34.776Z,37.80
2023-03-30T11:15:36.204Z,37.80
2023-03-30T11:20:37.623Z,37.90
2023-03-30T11:25:39.030Z,38.00
2023-03-30T11:30:40.438Z,38.60
2023-03-30T11:35:41.867Z,37.90
2023-03-30T11:40:43.284Z,38.00
2023-03-30T11:45:44.712Z,38.00
2023-03-30T11:50:46.183Z,38.10
2023-03-30T11:55:47.609Z,38.00
2023-03-30T12:00:49.024Z,38.00
2023-03-30T12:05:50.465Z,38.00
2023-03-30T12:10:51.886Z,38.00
2023-03-30T12:15:53.371Z,38.00
2023-03-30T12:20:54.815Z,38.00
2023-03-30T12:25:56.360Z,38.00
2023-03-30T12:30:57.763Z,38.00
2023-03-30T12:35:59.489Z,38.00
2023-03-30T12:41:00.949Z,38.00
2023-03-30T12:46:02.745Z,38.00
2023-03-30T12:51:04.579Z,38.00
2023-03-30T12:56:06.362Z,38.00
2023-03-30T13:01:07.969Z,38.00
2023-03-30T13:06:09.388Z,38.00
2023-03-30T13:11:10.811Z,38.00
2023-03-30T13:16:14.123Z,38.00
2023-03-30T13:21:15.873Z,38.00
2023-03-30T13:26:28.169Z,38.00
2023-03-30T13:31:35.800Z,38.00
2023-03-30T13:36:37.276Z,38.00
2023-03-30T13:41:38.806Z,38.00
2023-03-30T13:46:40.262Z,38.00
2023-03-30T13:51:41.740Z,38.00
2023-03-30T13:56:43.297Z,38.00
2023-03-30T14:01:44.775Z,38.00
2023-03-30T14:06:46.243Z,38.00
2023-03-30T14:11:47.662Z,38.00
2023-03-30T14:16:49.097Z,38.00
2023-03-30T14:21:58.244Z,38.10
2023-03-30T14:26:59.701Z,38.00
2023-03-30T14:32:08.118Z,38.00
2023-03-30T14:37:10.750Z,38.00
2023-03-30T14:42:12.193Z,38.00
2023-03-30T14:47:13.603Z,38.00
2023-03-30T14:52:15.008Z,38.00
2023-03-30T14:57:16.456Z,38.00
2023-03-30T15:02:17.865Z,38.00
2023-03-30T15:07:19.271Z,38.00
2023-03-30T15:12:20.680Z,38.00
2023-03-30T15:17:22.130Z,38.00
2023-03-30T15:22:23.558Z,38.00
2023-03-30T15:27:24.952Z,38.00
2023-03-30T15:32:26.425Z,38.00
2023-03-30T15:37:28.096Z,38.00
2023-03-30T15:42:29.546Z,38.00
2023-03-30T15:47:31.027Z,38.00
2023-03-30T15:52:32.603Z,38.00
2023-03-30T15:57:34.084Z,38.00
2023-03-30T16:02:35.555Z,38.00
2023-03-30T16:07:37.087Z,38.00
2023-03-30T16:12:39.458Z,38.00
2023-03-30T16:17:42.350Z,38.00
2023-03-30T16:22:43.841Z,38.00
2023-03-30T16:27:45.233Z,38.00
2023-03-30T16:32:46.735Z,38.00
2023-03-30T16:37:48.158Z,38.10
2023-03-30T16:42:49.595Z,38.10
2023-03-30T16:47:51.038Z,38.00
2023-03-30T16:52:52.450Z,38.10
2023-03-30T16:57:53.871Z,38.10
2023-03-30T17:02:55.344Z,38.10
2023-03-30T17:07:56.783Z,38.10
2023-03-30T17:12:58.328Z,38.60
2023-03-30T17:17:59.897Z,39.70
2023-03-30T17:23:01.366Z,40.80
2023-03-30T17:28:02.820Z,40.40
2023-03-30T17:33:04.255Z,40.90
2023-03-30T17:38:05.702Z,40.90
2023-03-30T17:43:07.174Z,42.00
2023-03-30T17:48:08.718Z,42.40
2023-03-30T17:53:10.248Z,42.60
2023-03-30T17:58:11.664Z,42.80
2023-03-30T18:03:13.168Z,42.50
2023-03-30T18:08:14.625Z,42.40
2023-03-30T18:13:16.116Z,42.20
2023-03-30T18:18:17.641Z,42.00
2023-03-30T18:23:19.064Z,41.80
2023-03-30T18:28:20.491Z,41.50
2023-03-30T18:33:21.966Z,41.30
2023-03-30T18:38:23.398Z,41.10
2023-03-30T18:43:25.748Z,41.00
2023-03-30T18:48:27.201Z,40.80
2023-03-30T18:53:28.655Z,40.70
2023-03-30T18:58:30.132Z,40.50
2023-03-30T19:03:31.613Z,40.80
2023-03-30T19:08:35.925Z,40.50
2023-03-30T19:13:37.335Z,40.30
2023-03-30T19:18:39.143Z,40.40
2023-03-30T19:23:40.547Z,40.30
2023-03-30T19:28:41.937Z,40.20
2023-03-30T19:33:43.332Z,40.10
2023-03-30T19:38:44.801Z,40.00
2023-03-30T19:43:46.197Z,40.00
2023-03-30T19:48:47.590Z,39.90
2023-03-30T19:53:49.003Z,39.90
2023-03-30T19:58:50.426Z,39.90
2023-03-30T20:03:51.862Z,39.90
2023-03-30T20:08:53.287Z,39.80
2023-03-30T20:13:54.705Z,39.80
2023-03-30T20:18:56.107Z,39.80
2023-03-30T20:23:57.516Z,39.70
2023-03-30T20:28:58.924Z,39.70
2023-03-30T20:34:00.341Z,39.80
2023-03-30T20:39:01.769Z,39.60
2023-03-30T20:44:03.227Z,39.60
2023-03-30T20:49:04.665Z,39.50
2023-03-30T20:54:06.076Z,39.50
2023-03-30T20:59:07.502Z,39.50
2023-03-30T21:04:08.927Z,39.40
2023-03-30T21:09:10.346Z,39.40
2023-03-30T21:14:11.771Z,39.40
2023-03-30T21:19:13.181Z,39.40
2023-03-30T21:24:14.585Z,39.40
2023-03-30T21:29:16.015Z,39.40
2023-03-30T21:34:17.612Z,39.40
2023-03-30T21:39:19.083Z,39.30
2023-03-30T21:44:20.623Z,39.30
2023-03-30T21:49:22.049Z,39.30
2023-03-30T21:54:23.439Z,39.30
2023-03-30T21:59:24.842Z,39.30
2023-03-30T22:04:26.267Z,39.30
2023-03-30T22:09:27.787Z,39.30
2023-03-30T22:14:29.209Z,39.20
2023-03-30T22:19:30.620Z,39.20
2023-03-30T22:24:32.152Z,39.20
2023-03-30T22:29:33.567Z,39.10
2023-03-30T22:34:34.970Z,39.10
2023-03-30T22:39:36.406Z,39.10
2023-03-30T22:44:37.822Z,39.10
2023-03-30T22:49:39.236Z,39.00
2023-03-30T22:54:40.721Z,39.00
2023-03-30T22:59:42.151Z,39.00
2023-03-30T23:04:43.559Z,39.00
2023-03-30T23:09:44.980Z,39.00
2023-03-30T23:14:46.406Z,39.00
2023-03-30T23:19:47.888Z,39.00
2023-03-30T23:24:49.299Z,39.00
2023-03-30T23:29:51.343Z,39.00
2023-03-30T23:34:52.760Z,38.90
2023-03-30T23:39:54.181Z,38.90
2023-03-30T23:44:55.599Z,38.90
2023-03-30T23:49:57.016Z,38.90
2023-03-30T23:54:58.508Z,38.90
2023-03-30T23:59:59.926Z,38.90
